Time;durP1;ratioP1;P1;durP2;ratioP2;P2;SDS_P1;SDS_P2;PMS_P1;PMS_P2;Temp;Humidity;BMP_temperature;BMP_pressure;BME280_temperature;BME280_humidity;BME280_pressure;Samples;Min_cycle;Max_cycle;Signal;HPM_P1;HPM_P2
2024/04/21 00:02:22;;;;;;;6.60;1.58;;;;;;;14.55;42.47;101981.75;5246503;26;19999;-65
2024/04/21 00:04:48;;;;;;;10.68;2.67;;;;;;;14.54;42.76;101975.47;5246488;26;19999;-66
2024/04/21 00:07:13;;;;;;;8.50;1.27;;;;;;;14.55;42.67;101973.66;5246279;26;20018;-66
2024/04/21 00:09:39;;;;;;;13.30;1.85;;;;;;;14.54;42.83;101972.78;5220015;27;20035;-67
2024/04/21 00:12:05;;;;;;;5.82;1.35;;;;;;;14.55;42.47;101974.50;5314270;26;20010;-67
2024/04/21 00:14:30;;;;;;;10.80;2.20;;;;;;;14.53;42.79;101965.69;5246187;27;20068;-66
2024/04/21 00:16:56;;;;;;;7.00;1.67;;;;;;;14.52;42.64;101966.69;5226507;27;20009;-66
2024/04/21 00:19:21;;;;;;;7.43;1.58;;;;;;;14.50;42.69;101957.00;5250390;27;20003;-66
2024/04/21 00:21:47;;;;;;;3.80;0.88;;;;;;;14.49;42.54;101956.13;5250225;27;20009;-66
2024/04/21 00:24:12;;;;;;;9.77;1.38;;;;;;;14.50;42.75;101952.47;5222213;27;20002;-66
2024/04/21 00:26:37;;;;;;;8.63;1.73;;;;;;;14.50;42.67;101949.78;5222561;27;20009;-67
2024/04/21 00:29:04;;;;;;;13.98;1.63;;;;;;;14.50;42.67;101948.91;5250288;27;19998;-67
2024/04/21 00:31:30;;;;;;;7.90;1.35;;;;;;;14.49;43.00;101949.88;5278285;27;20076;-65
2024/04/21 00:33:56;;;;;;;7.28;1.20;;;;;;;14.49;42.79;101949.88;5221921;27;20006;-67
2024/04/21 00:36:21;;;;;;;9.98;1.67;;;;;;;14.46;42.81;101953.69;5250030;27;20069;-67
2024/04/21 00:38:47;;;;;;;7.13;1.95;;;;;;;14.47;42.81;101947.34;5250072;27;20008;-66
2024/04/21 00:41:13;;;;;;;6.50;2.13;;;;;;;14.48;42.97;101949.06;5250236;27;19994;-66
2024/04/21 00:43:38;;;;;;;4.55;1.02;;;;;;;14.46;42.52;101942.91;5250198;27;19994;-67
2024/04/21 00:46:04;;;;;;;9.48;1.02;;;;;;;14.42;42.94;101946.00;5277746;27;20069;-67
2024/04/21 00:48:29;;;;;;;7.50;1.67;;;;;;;14.41;42.78;101952.34;5249722;27;20427;-67
2024/04/21 00:50:56;;;;;;;8.68;1.20;;;;;;;14.37;42.67;101934.75;5277630;27;20013;-66
2024/04/21 00:53:22;;;;;;;2.10;1.30;;;;;;;14.37;42.57;101945.53;5222211;27;20006;-66
2024/04/21 00:55:48;;;;;;;5.75;1.35;;;;;;;14.36;42.68;101939.28;5249232;27;20009;-66
2024/04/21 00:58:14;;;;;;;6.80;1.20;;;;;;;14.33;42.84;101934.13;5249528;27;19999;-65
2024/04/21 01:00:40;;;;;;;7.10;2.05;;;;;;;14.31;42.67;101929.81;5249497;27;20006;-67
2024/04/21 01:03:06;;;;;;;9.65;0.95;;;;;;;14.31;42.80;101935.22;5249649;27;20012;-66
2024/04/21 01:05:31;;;;;;;6.22;1.02;;;;;;;14.31;42.32;101933.38;5249611;27;20073;-66
2024/04/21 01:07:57;;;;;;;7.80;1.17;;;;;;;14.31;42.65;101933.38;5279136;27;19998;-66
2024/04/21 01:10:22;;;;;;;14.63;1.60;;;;;;;14.33;42.75;101928.75;5221211;27;19994;-66
2024/04/21 01:12:48;;;;;;;8.95;1.23;;;;;;;14.34;42.83;101930.47;5249506;27;20413;-66
2024/04/21 01:15:14;;;;;;;8.02;1.63;;;;;;;14.32;42.84;101932.41;5221734;27;20005;-67
2024/04/21 01:17:40;;;;;;;3.33;1.10;;;;;;;14.30;42.77;101928.97;5278377;26;20450;-65
2024/04/21 01:20:06;;;;;;;3.92;1.05;;;;;;;14.32;42.88;101924.31;5220469;27;20014;-66
2024/04/21 01:22:33;;;;;;;10.38;1.60;;;;;;;14.30;42.61;101926.25;5249004;27;20023;-66
2024/04/21 01:24:59;;;;;;;4.30;1.10;;;;;;;14.31;42.54;101930.69;5277079;27;19994;-66
2024/04/21 01:27:24;;;;;;;2.72;0.85;;;;;;;14.30;42.36;101920.00;5249151;27;19998;-67
2024/04/21 01:29:50;;;;;;;6.50;1.20;;;;;;;14.29;42.88;101921.00;5278684;27;19994;-67
2024/04/21 01:32:18;;;;;;;4.45;1.00;;;;;;;14.28;42.77;101916.59;5249118;26;19994;-66
2024/04/21 01:34:44;;;;;;;13.38;1.67;;;;;;;14.26;42.87;101911.34;5276862;27;20343;-66
2024/04/21 01:37:09;;;;;;;8.45;2.38;;;;;;;14.24;42.33;101913.28;5221017;27;20009;-66
2024/04/21 01:39:35;;;;;;;6.18;1.27;;;;;;;14.25;42.89;101915.00;5221027;26;20013;-67
2024/04/21 01:42:00;;;;;;;7.63;1.13;;;;;;;14.25;42.43;101914.16;5221013;27;20373;-66
2024/04/21 01:44:26;;;;;;;6.82;1.73;;;;;;;14.23;42.48;101911.59;5221090;27;20009;-66
2024/04/21 01:46:51;;;;;;;6.88;1.10;;;;;;;14.23;42.69;101914.28;5278504;27;20479;-65
2024/04/21 01:49:17;;;;;;;7.35;1.35;;;;;;;14.24;42.69;101907.03;5249199;27;20013;-66
2024/04/21 01:51:42;;;;;;;14.75;1.42;;;;;;;14.20;42.61;101901.06;5249617;27;19998;-66
2024/04/21 01:54:08;;;;;;;9.88;1.55;;;;;;;14.21;42.63;101900.06;5279093;27;20473;-66
2024/04/21 01:56:33;;;;;;;8.25;1.38;;;;;;;14.21;42.58;101896.53;5251993;27;19998;-65
2024/04/21 01:58:59;;;;;;;10.07;1.45;;;;;;;14.18;42.70;101892.22;5251380;27;19998;-66
2024/04/21 02:01:24;;;;;;;3.38;1.05;;;;;;;14.19;42.66;101883.16;5221987;27;19998;-66
2024/04/21 02:03:50;;;;;;;11.70;1.52;;;;;;;14.16;42.55;101887.94;5249972;27;20006;-65
2024/04/21 02:06:15;;;;;;;7.90;1.17;;;;;;;14.15;42.37;101886.25;5250038;27;19999;-66
2024/04/21 02:08:40;;;;;;;8.77;2.08;;;;;;;14.11;42.60;101882.94;5222530;27;20327;-65
2024/04/21 02:11:06;;;;;;;3.47;1.35;;;;;;;14.10;42.57;101881.22;5249614;27;20017;-66
2024/04/21 02:13:31;;;;;;;9.63;1.88;;;;;;;14.11;42.59;101884.78;5248987;27;20461;-67
2024/04/21 02:15:57;;;;;;;13.20;1.92;;;;;;;14.08;42.77;101882.34;5278143;27;20003;-66
2024/04/21 02:18:22;;;;;;;8.52;1.42;;;;;;;14.06;42.72;101877.09;5248313;27;20003;-65
2024/04/21 02:20:48;;;;;;;2.60;1.10;;;;;;;14.03;42.63;101877.34;5277981;27;20030;-66
2024/04/21 02:23:13;;;;;;;7.78;1.10;;;;;;;13.99;42.75;101875.88;5277857;27;20018;-66
2024/04/21 02:25:39;;;;;;;7.30;1.20;;;;;;;13.94;42.59;101872.69;5248015;27;20006;-66
2024/04/21 02:28:04;;;;;;;9.45;1.77;;;;;;;13.95;42.73;101877.13;5248126;27;20002;-66
2024/04/21 02:30:30;;;;;;;4.85;1.08;;;;;;;13.94;42.89;101878.94;5220120;27;20013;-66
2024/04/21 02:32:57;;;;;;;11.75;1.42;;;;;;;13.91;42.90;101867.56;5279570;27;20002;-66
2024/04/21 02:35:23;;;;;;;3.88;0.75;;;;;;;13.95;42.66;101879.81;5279440;27;19998;-65
2024/04/21 02:37:48;;;;;;;7.22;1.48;;;;;;;13.90;42.45;101866.69;5251266;27;20021;-66
2024/04/21 02:40:13;;;;;;;9.95;1.40;;;;;;;13.88;42.58;101868.66;5223417;27;20025;-66
2024/04/21 02:42:39;;;;;;;11.00;1.70;;;;;;;13.87;42.46;101871.50;5280699;27;20017;-65
2024/04/21 02:45:05;;;;;;;6.03;1.23;;;;;;;13.83;42.51;101870.03;5230142;27;20457;-66
2024/04/21 02:47:30;;;;;;;6.97;1.05;;;;;;;13.77;42.52;101871.38;5285560;27;20363;-66
2024/04/21 02:49:56;;;;;;;3.40;1.23;;;;;;;13.73;42.61;101867.25;5256647;27;20002;-66
2024/04/21 02:52:21;;;;;;;5.53;1.08;;;;;;;13.71;42.30;101868.31;5256730;27;20461;-66
2024/04/21 02:54:47;;;;;;;5.43;1.30;;;;;;;13.64;42.64;101856.34;5284843;26;20016;-66
2024/04/21 02:57:12;;;;;;;9.65;1.55;;;;;;;13.64;42.56;101865.28;5284672;26;20319;-66
2024/04/21 02:59:39;;;;;;;6.95;1.08;;;;;;;13.60;42.54;101857.56;5284497;26;20033;-66
2024/04/21 03:02:04;;;;;;;6.43;0.98;;;;;;;13.56;42.57;101850.72;5256737;27;20005;-66
2024/04/21 03:04:30;;;;;;;6.05;1.30;;;;;;;13.50;42.71;101851.22;5284783;26;20012;-66
2024/04/21 03:06:56;;;;;;;3.00;0.88;;;;;;;13.50;42.67;101853.91;5284642;26;20009;-66
2024/04/21 03:09:21;;;;;;;8.20;1.58;;;;;;;13.46;42.63;101847.91;5284485;26;20335;-66
2024/04/21 03:11:47;;;;;;;12.18;1.80;;;;;;;13.43;42.51;101841.94;5256278;27;20021;-66
2024/04/21 03:14:13;;;;;;;5.93;1.65;;;;;;;13.41;42.40;101856.34;5284495;26;20082;-66
2024/04/21 03:16:38;;;;;;;6.50;1.55;;;;;;;13.36;42.59;101846.94;5256212;27;20024;-66
2024/04/21 03:19:04;;;;;;;3.58;1.10;;;;;;;13.35;42.88;101848.75;5314723;26;20442;-65
2024/04/21 03:21:29;;;;;;;8.70;1.05;;;;;;;13.31;42.52;101852.69;5284241;26;20467;-66
2024/04/21 03:23:55;;;;;;;13.05;2.40;;;;;;;13.32;42.76;101859.75;5256256;27;20001;-66
2024/04/21 03:26:21;;;;;;;6.07;1.77;;;;;;;13.28;42.94;101849.38;5284339;26;20006;-65
2024/04/21 03:28:46;;;;;;;9.43;0.85;;;;;;;13.29;42.70;101859.13;5256021;27;20005;-66
2024/04/21 03:31:12;;;;;;;3.60;1.40;;;;;;;13.20;42.69;101841.91;5284212;26;20454;-66
2024/04/21 03:33:37;;;;;;;8.93;1.30;;;;;;;13.21;42.79;101843.59;5283949;26;20016;-66
2024/04/21 03:36:05;;;;;;;7.43;1.35;;;;;;;13.17;42.79;101847.53;5284527;26;20001;-65
2024/04/21 03:38:31;;;;;;;9.82;1.15;;;;;;;13.13;42.77;101832.59;5284144;26;20075;-66
2024/04/21 03:40:56;;;;;;;5.43;1.05;;;;;;;13.14;42.84;101842.41;5284085;26;20006;-66
2024/04/21 03:43:22;;;;;;;4.95;1.50;;;;;;;13.09;43.07;101841.88;5255334;27;20474;-65
2024/04/21 03:45:48;;;;;;;3.97;1.20;;;;;;;13.08;43.06;101833.94;5314402;26;20006;-65
2024/04/21 03:48:13;;;;;;;6.97;0.95;;;;;;;13.05;42.88;101832.31;5256114;27;19997;-66
2024/04/21 03:50:41;;;;;;;6.85;0.98;;;;;;;13.02;42.73;101824.50;5255889;27;20016;-66
2024/04/21 03:53:08;;;;;;;7.38;1.10;;;;;;;12.99;42.66;101827.41;5256613;27;20033;-65
2024/04/21 03:55:34;;;;;;;7.88;1.10;;;;;;;12.97;43.10;101833.91;5256075;27;20014;-65
2024/04/21 03:57:59;;;;;;;5.85;1.25;;;;;;;12.95;42.91;101823.28;5284083;26;20326;-65
2024/04/21 04:00:25;;;;;;;4.57;1.30;;;;;;;12.95;43.04;101823.28;5255691;27;20001;-66
2024/04/21 04:02:50;;;;;;;5.32;1.17;;;;;;;12.96;43.12;101834.88;5256076;27;20006;-66
2024/04/21 04:05:16;;;;;;;8.43;0.82;;;;;;;12.96;42.86;101830.34;5283923;26;20009;-66
2024/04/21 04:07:41;;;;;;;5.20;0.65;;;;;;;12.93;42.89;101830.59;5283938;26;20001;-66
2024/04/21 04:10:07;;;;;;;8.23;1.25;;;;;;;12.96;42.78;101826.78;5313706;26;20016;-65
2024/04/21 04:12:41;;;;;;;6.88;0.77;;;;;;;12.96;43.03;101824.97;5284334;26;20013;-66
2024/04/21 04:15:07;;;;;;;7.63;0.88;;;;;;;12.99;42.94;101822.03;5283663;26;20344;-66
2024/04/21 04:17:33;;;;;;;9.20;1.30;;;;;;;12.99;42.92;101818.50;5313954;26;20001;-66
2024/04/21 04:19:58;;;;;;;5.45;1.05;;;;;;;12.97;42.85;101815.06;5255474;27;20012;-66
2024/04/21 04:22:24;;;;;;;3.78;0.80;;;;;;;12.99;43.03;101808.59;5283718;26;20446;-66
2024/04/21 04:24:49;;;;;;;3.70;1.08;;;;;;;13.01;42.98;101806.63;5283644;26;20484;-66
2024/04/21 04:27:14;;;;;;;6.82;0.75;;;;;;;12.98;43.17;101801.50;5313672;26;20004;-66
2024/04/21 04:29:40;;;;;;;3.15;0.47;;;;;;;12.99;42.71;101800.53;5283803;26;20016;-66
2024/04/21 04:32:05;;;;;;;6.97;1.15;;;;;;;13.03;42.99;101803.84;5255264;26;20079;-67
2024/04/21 04:34:31;;;;;;;4.88;0.70;;;;;;;12.98;42.79;101796.09;5283453;26;20021;-67
2024/04/21 04:36:56;;;;;;;2.05;0.47;;;;;;;13.02;42.79;101785.97;5283368;26;20080;-66
2024/04/21 04:39:22;;;;;;;10.55;0.93;;;;;;;13.03;42.95;101787.69;5255253;27;20001;-66
2024/04/21 04:41:47;;;;;;;5.97;1.20;;;;;;;13.00;43.09;101783.41;5311797;26;20010;-66
2024/04/21 04:44:12;;;;;;;8.00;1.08;;;;;;;13.04;42.88;101786.69;5313462;26;20005;-66
2024/04/21 04:46:38;;;;;;;7.32;0.85;;;;;;;13.04;43.00;101784.00;5255667;27;20001;-65
2024/04/21 04:49:03;;;;;;;3.80;0.80;;;;;;;13.05;42.89;101791.13;5255481;27;20005;-65
2024/04/21 04:51:29;;;;;;;7.50;0.95;;;;;;;13.07;42.94;101781.06;5283716;26;20001;-66
2024/04/21 04:53:55;;;;;;;5.38;0.98;;;;;;;13.05;43.09;101774.97;5255113;27;20006;-66
2024/04/21 04:56:20;;;;;;;6.47;0.88;;;;;;;13.07;42.87;101779.28;5282652;26;20001;-66
2024/04/21 04:58:46;;;;;;;1.27;0.47;;;;;;;13.07;42.44;101773.91;5255022;27;20076;-66
2024/04/21 05:01:11;;;;;;;4.90;0.80;;;;;;;13.08;42.99;101781.00;5282926;26;20020;-67
2024/04/21 05:03:37;;;;;;;8.52;1.13;;;;;;;13.02;42.92;101764.47;5254942;26;20016;-66
2024/04/21 05:06:02;;;;;;;7.57;2.05;;;;;;;13.11;43.22;101779.91;5255004;27;20021;-65
2024/04/21 05:08:28;;;;;;;0.88;0.38;;;;;;;13.10;43.16;101779.03;5313322;26;20005;-66
2024/04/21 05:10:54;;;;;;;3.97;1.08;;;;;;;13.11;43.13;101775.38;5255069;27;20006;-65
2024/04/21 05:13:21;;;;;;;6.57;0.80;;;;;;;13.10;43.16;101780.88;5286642;26;20002;-65
2024/04/21 05:15:47;;;;;;;3.65;1.30;;;;;;;13.09;43.26;101773.81;5283410;26;20470;-65
2024/04/21 05:18:12;;;;;;;1.23;0.85;;;;;;;13.05;43.05;101762.38;5283468;26;20017;-65
2024/04/21 05:20:38;;;;;;;12.80;1.40;;;;;;;13.07;43.29;101768.53;5283746;26;20351;-65
2024/04/21 05:23:03;;;;;;;3.72;0.77;;;;;;;13.04;43.18;101762.50;5313562;26;20013;-65
2024/04/21 05:25:29;;;;;;;6.45;1.00;;;;;;;13.07;43.29;101771.22;5283081;26;20439;-65
2024/04/21 05:27:54;;;;;;;10.43;1.20;;;;;;;13.06;43.58;101774.88;5283301;26;20020;-65
2024/04/21 05:30:20;;;;;;;9.10;1.50;;;;;;;13.06;43.25;101777.56;5255211;27;20056;-65
2024/04/21 05:32:45;;;;;;;2.00;0.80;;;;;;;13.08;43.59;101775.63;5254881;27;20028;-65
2024/04/21 05:35:11;;;;;;;2.67;0.90;;;;;;;13.10;43.44;101784.44;5255875;27;20330;-65
2024/04/21 05:37:36;;;;;;;12.68;1.15;;;;;;;13.10;43.71;101776.34;5340491;26;20365;-66
2024/04/21 05:40:02;;;;;;;4.82;0.98;;;;;;;13.14;43.65;101783.22;5282821;26;20020;-65
2024/04/21 05:42:27;;;;;;;9.50;1.40;;;;;;;13.14;43.64;101779.66;5312910;26;20001;-66
2024/04/21 05:44:52;;;;;;;3.65;0.73;;;;;;;13.19;43.52;101778.31;5255002;27;20013;-65
2024/04/21 05:47:18;;;;;;;5.28;0.88;;;;;;;13.21;43.53;101783.56;5282717;26;20016;-65
2024/04/21 05:49:43;;;;;;;4.07;1.02;;;;;;;13.20;43.68;101777.34;5311191;26;19997;-65
2024/04/21 05:52:11;;;;;;;3.47;0.70;;;;;;;13.21;43.44;101781.72;5311036;26;20012;-65
2024/04/21 05:54:36;;;;;;;11.65;0.82;;;;;;;13.20;43.71;101780.03;5254892;26;20006;-65
2024/04/21 05:57:02;;;;;;;5.60;0.85;;;;;;;13.24;43.42;101783.31;5282944;26;20456;-66
2024/04/21 05:59:28;;;;;;;6.00;0.93;;;;;;;13.25;43.82;101777.84;5282654;26;20080;-66
2024/04/21 06:01:53;;;;;;;5.50;0.70;;;;;;;13.25;43.53;101777.84;5254475;27;20446;-65
2024/04/21 06:04:18;;;;;;;6.95;0.98;;;;;;;13.29;43.68;101773.03;5254316;27;20005;-65
2024/04/21 06:06:44;;;;;;;6.32;0.75;;;;;;;13.30;43.88;101777.44;5312283;26;20446;-66
2024/04/21 06:09:09;;;;;;;5.68;0.90;;;;;;;13.34;43.74;101779.75;5282221;26;20006;-66
2024/04/21 06:11:35;;;;;;;7.63;1.30;;;;;;;13.36;43.76;101777.81;5310746;26;20045;-66
2024/04/21 06:14:07;;;;;;;3.90;0.80;;;;;;;13.44;43.59;101782.56;5282404;26;20001;-65
2024/04/21 06:16:33;;;;;;;4.35;1.00;;;;;;;13.49;43.69;101784.88;5282235;26;20037;-66
2024/04/21 06:18:59;;;;;;;2.67;0.98;;;;;;;13.54;43.68;101793.47;5282415;26;20367;-66
2024/04/21 06:21:24;;;;;;;7.38;1.00;;;;;;;13.54;43.75;101793.47;5282266;26;20006;-65
2024/04/21 06:23:50;;;;;;;6.57;0.70;;;;;;;13.54;43.92;101801.53;5282048;26;20002;-65
2024/04/21 06:26:16;;;;;;;4.93;0.75;;;;;;;13.53;43.97;101797.13;5281682;26;20005;-65
2024/04/21 06:28:41;;;;;;;5.93;1.50;;;;;;;13.50;44.11;101797.38;5299873;26;19997;-65
2024/04/21 06:31:07;;;;;;;8.55;1.13;;;;;;;13.46;44.15;101795.91;5253902;27;19997;-65
2024/04/21 06:33:32;;;;;;;3.50;0.80;;;;;;;13.45;44.10;101804.97;5310918;26;20013;-66
2024/04/21 06:35:59;;;;;;;2.42;0.82;;;;;;;13.43;44.13;101803.25;5254488;27;19998;-66
2024/04/21 06:38:49;;;;;;;2.30;0.85;;;;;;;13.43;44.06;101811.31;5339658;26;19997;-66
2024/04/21 06:41:14;;;;;;;2.25;0.93;;;;;;;13.45;44.28;101811.22;5306457;26;20015;-66
2024/04/21 06:43:39;;;;;;;7.95;1.38;;;;;;;13.47;44.08;101813.75;5281783;26;20005;-66
2024/04/21 06:46:05;;;;;;;4.28;1.20;;;;;;;13.49;44.26;101812.66;5310254;26;20033;-66
2024/04/21 06:48:30;;;;;;;2.78;0.52;;;;;;;13.55;44.06;101806.78;5312009;26;20041;-66
2024/04/21 06:50:56;;;;;;;4.40;0.85;;;;;;;13.57;44.05;101820.13;5280982;26;20039;-65
2024/04/21 06:53:21;;;;;;;3.78;0.73;;;;;;;13.55;44.44;101827.47;5281506;26;20140;-66
2024/04/21 06:55:47;;;;;;;3.42;0.63;;;;;;;13.54;44.34;101825.78;5281548;26;20430;-66
2024/04/21 06:58:13;;;;;;;4.43;0.82;;;;;;;13.50;44.10;101827.84;5309838;26;20052;-65
2024/04/21 07:00:39;;;;;;;4.97;1.60;;;;;;;13.49;44.41;101822.56;5281697;26;20017;-66
2024/04/21 07:03:05;;;;;;;4.00;0.88;;;;;;;13.50;44.16;101829.69;5309466;26;20009;-66
2024/04/21 07:05:31;;;;;;;9.40;1.88;;;;;;;13.46;44.49;101838.97;5253427;27;20006;-66
2024/04/21 07:08:00;;;;;;;6.18;1.10;;;;;;;13.49;44.44;101849.47;5286430;26;20021;-65
2024/04/21 07:10:27;;;;;;;5.82;1.38;;;;;;;13.50;44.47;101862.84;5305025;26;19998;-65
2024/04/21 07:12:52;;;;;;;4.55;0.75;;;;;;;13.56;44.54;101861.50;5281272;26;20341;-65
2024/04/21 07:15:18;;;;;;;4.57;1.10;;;;;;;13.68;44.22;101860.50;5281498;26;20006;-66
2024/04/21 07:17:44;;;;;;;6.45;1.10;;;;;;;13.78;44.28;101861.47;5252967;26;20016;-69
2024/04/21 07:20:09;;;;;;;5.68;1.30;;;;;;;13.84;44.43;101863.66;5314772;26;20025;-68
2024/04/21 07:22:35;;;;;;;2.08;1.48;;;;;;;13.89;44.22;101866.84;5256508;26;20420;-67
2024/04/21 07:25:01;;;;;;;1.90;0.75;;;;;;;13.92;44.30;101863.91;5256387;26;20430;-67
2024/04/21 07:27:27;;;;;;;4.90;1.40;;;;;;;13.95;44.23;101869.03;5284316;26;19998;-66
2024/04/21 07:29:53;;;;;;;3.72;1.50;;;;;;;14.04;44.02;101878.19;5312755;26;20005;-66
2024/04/21 07:32:19;;;;;;;1.63;0.88;;;;;;;14.11;44.47;101885.66;5255590;26;20013;-67
2024/04/21 07:34:44;;;;;;;4.18;1.38;;;;;;;14.38;43.89;101891.47;5313736;26;20021;-67
2024/04/21 07:37:10;;;;;;;8.85;1.60;;;;;;;15.06;43.19;101876.69;5283717;26;20021;-67
2024/04/21 07:39:35;;;;;;;2.00;0.85;;;;;;;15.46;43.04;101885.78;5255297;26;20045;-66
2024/04/21 07:42:01;;;;;;;4.65;1.08;;;;;;;16.03;42.71;101892.34;5283336;26;20010;-67
2024/04/21 07:44:26;;;;;;;3.75;0.90;;;;;;;15.98;42.54;101902.72;5283446;26;20087;-66
2024/04/21 07:46:52;;;;;;;7.07;1.15;;;;;;;16.08;42.89;101906.34;5310577;26;20349;-67
2024/04/21 07:49:17;;;;;;;2.40;1.30;;;;;;;16.07;43.35;101910.03;5283502;26;20010;-67
2024/04/21 07:51:43;;;;;;;4.70;1.30;;;;;;;16.06;42.90;101924.53;5283184;26;20469;-67
2024/04/21 07:54:08;;;;;;;6.22;1.60;;;;;;;16.06;42.82;101924.53;5283404;26;20091;-66
2024/04/21 07:56:34;;;;;;;1.88;0.90;;;;;;;16.03;42.57;101935.59;5283453;26;20012;-66
2024/04/21 07:58:59;;;;;;;3.15;0.90;;;;;;;16.00;43.15;101936.72;5254487;26;20006;-65
2024/04/21 08:01:25;;;;;;;5.57;1.20;;;;;;;16.03;43.10;101939.16;5278519;26;20013;-66
2024/04/21 08:03:50;;;;;;;1.67;0.77;;;;;;;15.98;42.80;101943.28;5255180;26;20430;-66
2024/04/21 08:06:17;;;;;;;3.85;1.38;;;;;;;15.91;42.76;101945.69;5311280;26;20002;-66
2024/04/21 08:08:43;;;;;;;5.32;1.00;;;;;;;15.88;42.90;101951.34;5313177;26;20010;-67
2024/04/21 08:11:09;;;;;;;4.55;1.00;;;;;;;15.92;42.88;101958.19;5254722;26;20016;-67
2024/04/21 08:13:35;;;;;;;3.97;0.82;;;;;;;16.04;42.69;101967.06;5255025;26;20002;-66
2024/04/21 08:16:01;;;;;;;2.60;1.02;;;;;;;16.03;42.80;101962.63;5311227;26;20466;-67
2024/04/21 08:18:26;;;;;;;1.08;0.80;;;;;;;16.28;42.47;101967.56;5283211;26;20010;-66
2024/04/21 08:20:52;;;;;;;6.50;1.30;;;;;;;16.73;41.72;101966.13;5254924;26;20005;-67
2024/04/21 08:23:17;;;;;;;3.70;1.75;;;;;;;17.44;41.22;101963.94;5254753;26;20092;-66
2024/04/21 08:25:46;;;;;;;2.95;1.70;;;;;;;18.02;40.82;101970.91;5282814;26;20335;-67
2024/04/21 08:28:12;;;;;;;3.75;2.13;;;;;;;18.21;41.00;101963.66;5311475;26;20010;-67
2024/04/21 08:30:38;;;;;;;4.20;2.65;;;;;;;18.35;41.03;101965.88;5283407;26;20008;-67
2024/04/21 08:33:03;;;;;;;4.50;2.63;;;;;;;18.38;41.03;101971.00;5283787;26;20002;-67
2024/04/21 08:35:29;;;;;;;6.35;2.60;;;;;;;18.66;40.42;101970.00;5283562;26;20083;-66
2024/04/21 08:37:55;;;;;;;5.35;2.92;;;;;;;18.55;40.99;101971.09;5283066;26;20014;-66
2024/04/21 08:40:20;;;;;;;6.65;3.38;;;;;;;18.69;40.50;101980.56;5283471;26;20002;-68
2024/04/21 08:42:46;;;;;;;9.43;3.17;;;;;;;18.97;39.84;101971.34;5283383;26;20446;-67
2024/04/21 08:45:12;;;;;;;6.47;2.20;;;;;;;18.71;40.13;101983.97;5283384;26;20569;-67
2024/04/21 08:47:37;;;;;;;7.93;1.30;;;;;;;18.66;40.15;101980.84;5283244;26;20001;-67
2024/04/21 08:50:03;;;;;;;3.75;1.30;;;;;;;18.74;39.97;102002.66;5283288;26;20075;-67
2024/04/21 08:52:35;;;;;;;7.15;2.35;;;;;;;18.90;39.20;102000.09;5255064;26;20465;-67
2024/04/21 08:55:01;;;;;;;9.05;1.60;;;;;;;18.86;39.01;102003.28;5283500;26;20013;-68
2024/04/21 08:57:26;;;;;;;3.83;1.42;;;;;;;19.64;38.74;101994.31;5282987;26;20001;-67
2024/04/21 08:59:59;;;;;;;5.65;2.25;;;;;;;20.00;38.06;102001.34;5254843;26;20005;-67
2024/04/21 09:02:29;;;;;;;4.55;1.70;;;;;;;20.44;37.54;102006.66;5283058;26;20002;-67
2024/04/21 09:04:57;;;;;;;6.47;2.95;;;;;;;20.30;38.06;102000.84;5282960;26;20006;-67
2024/04/21 09:07:24;;;;;;;2.38;1.23;;;;;;;19.98;38.33;102011.53;5282669;26;20009;-67
2024/04/21 09:09:49;;;;;;;3.70;1.23;;;;;;;19.64;38.92;102010.63;5311228;26;20335;-67
2024/04/21 09:12:15;;;;;;;7.82;2.65;;;;;;;19.27;39.13;102023.53;5311659;26;20076;-67
2024/04/21 09:14:49;;;;;;;9.95;1.80;;;;;;;18.93;38.89;102026.97;5283252;26;20027;-67
2024/04/21 09:17:15;;;;;;;6.95;2.15;;;;;;;18.59;38.97;102028.63;5313358;26;20006;-67
2024/04/21 09:19:40;;;;;;;6.53;1.70;;;;;;;18.36;38.98;102032.72;5282931;26;19998;-67
2024/04/21 09:22:06;;;;;;;8.85;1.70;;;;;;;18.23;39.34;102037.63;5283181;26;20001;-66
2024/04/21 09:24:32;;;;;;;6.72;2.00;;;;;;;18.36;38.57;102021.84;5254932;27;20072;-67
2024/04/21 09:26:57;;;;;;;10.93;2.20;;;;;;;18.38;38.41;102036.97;5254899;27;20005;-66
2024/04/21 09:29:23;;;;;;;9.85;2.03;;;;;;;18.43;38.16;102041.94;5311263;26;20358;-66
2024/04/21 09:31:49;;;;;;;4.05;1.85;;;;;;;18.25;38.53;102038.34;5254464;27;20052;-66
2024/04/21 09:34:14;;;;;;;8.98;2.47;;;;;;;18.42;37.75;102045.69;5311209;26;20005;-66
2024/04/21 09:36:40;;;;;;;5.80;2.90;;;;;;;18.30;38.58;102044.16;5339918;26;20005;-66
2024/04/21 09:39:06;;;;;;;3.40;2.00;;;;;;;18.23;38.37;102045.78;5311377;26;20326;-68
2024/04/21 09:41:35;;;;;;;9.88;2.50;;;;;;;18.30;38.60;102049.59;5310672;26;20016;-67
2024/04/21 09:44:01;;;;;;;8.75;2.50;;;;;;;18.25;37.92;102051.91;5282532;27;19998;-66
2024/04/21 09:46:27;;;;;;;9.18;2.38;;;;;;;18.32;37.78;102053.00;5254714;27;19997;-67
2024/04/21 09:48:53;;;;;;;7.32;2.53;;;;;;;18.71;38.07;102049.13;5310929;26;20450;-67
2024/04/21 09:51:20;;;;;;;4.60;2.63;;;;;;;19.95;36.53;102046.38;5254702;27;20470;-68
2024/04/21 09:53:47;;;;;;;3.90;2.45;;;;;;;20.12;36.49;102043.59;5312210;26;20349;-67
2024/04/21 09:56:26;;;;;;;6.40;2.33;;;;;;;20.32;36.26;102045.06;5282157;26;20029;-68
2024/04/21 09:58:53;;;;;;;6.85;2.40;;;;;;;20.52;35.72;102053.00;5310859;26;20117;-66
2024/04/21 10:01:36;;;;;;;4.53;2.10;;;;;;;21.19;35.43;102054.75;5282158;26;20001;-66
2024/04/21 10:04:02;;;;;;;;;;;;;;;20.95;35.98;102054.66;5310934;26;20412;-66
2024/04/21 10:06:31;;;;;;;5.05;1.52;;;;;;;20.68;36.14;102066.69;5310778;26;19996;-67
2024/04/21 10:09:00;;;;;;;4.53;1.48;;;;;;;20.24;36.35;102064.09;5339423;26;20012;-66
2024/04/21 10:11:26;;;;;;;7.18;2.22;;;;;;;20.02;36.74;102074.63;5253875;27;20118;-67
2024/04/21 10:13:53;;;;;;;2.35;1.88;;;;;;;20.30;36.15;102073.47;5282768;27;20006;-67
2024/04/21 10:16:18;;;;;;;3.17;1.63;;;;;;;21.20;35.44;102073.66;5310890;26;20006;-67
2024/04/21 10:18:44;;;;;;;4.43;1.67;;;;;;;21.05;35.81;102072.56;5282523;27;20012;-67
2024/04/21 10:21:10;;;;;;;4.28;1.85;;;;;;;20.79;36.16;102072.69;5282272;26;20020;-66
2024/04/21 10:23:35;;;;;;;4.47;2.58;;;;;;;22.02;34.83;102075.41;5310817;26;20002;-67
2024/04/21 10:26:03;;;;;;;5.75;2.72;;;;;;;22.51;34.47;102073.38;5339314;26;20386;-67
2024/04/21 10:28:29;;;;;;;6.22;2.00;;;;;;;23.51;33.31;102064.28;5282541;26;20005;-71
2024/04/21 10:31:08;;;;;;;2.50;1.80;;;;;;;23.64;33.67;102065.41;5281859;26;20009;-69
2024/04/21 10:33:43;;;;;;;4.13;2.22;;;;;;;23.58;34.28;102073.47;5309858;26;20009;-68
2024/04/21 10:36:18;;;;;;;3.55;1.67;;;;;;;23.10;34.36;102080.13;5310193;26;20002;-68
2024/04/21 10:38:52;;;;;;;3.72;1.55;;;;;;;23.37;33.52;102089.66;5338574;26;20029;-67
2024/04/21 10:41:20;;;;;;;4.80;1.63;;;;;;;22.83;34.16;102081.47;5226096;27;20030;-67
2024/04/21 10:43:47;;;;;;;4.25;1.85;;;;;;;22.35;34.43;102087.09;5294738;26;20343;-67
2024/04/21 10:46:12;;;;;;;4.72;1.90;;;;;;;22.42;33.95;102083.47;5281638;26;20442;-68
2024/04/21 10:48:38;;;;;;;2.25;1.50;;;;;;;22.27;34.06;102079.78;5308498;26;20006;-68
2024/04/21 10:51:03;;;;;;;2.53;1.52;;;;;;;22.86;33.27;102083.00;5269019;26;20342;-67
2024/04/21 10:53:29;;;;;;;1.77;1.67;;;;;;;22.35;33.60;102090.69;5313158;26;20017;-67
2024/04/21 10:55:55;;;;;;;4.72;2.05;;;;;;;22.57;33.24;102078.13;5257830;26;20005;-67
2024/04/21 10:58:21;;;;;;;3.30;1.98;;;;;;;22.22;33.77;102092.25;5313952;26;20005;-67
2024/04/21 11:00:47;;;;;;;3.75;1.70;;;;;;;21.80;34.15;102098.72;5286380;26;20002;-68
2024/04/21 11:03:12;;;;;;;2.25;1.60;;;;;;;21.37;34.35;102093.63;5285403;26;20006;-67
2024/04/21 11:05:43;;;;;;;1.63;1.35;;;;;;;21.08;34.01;102101.41;5315122;26;20001;-67
2024/04/21 11:08:09;;;;;;;4.28;1.55;;;;;;;21.15;33.86;102103.28;5315030;26;20004;-67
2024/04/21 11:10:34;;;;;;;1.27;1.15;;;;;;;21.04;34.34;102100.84;5256543;26;20080;-67
2024/04/21 11:13:00;;;;;;;4.80;1.90;;;;;;;21.02;34.53;102091.97;5373827;21;20036;-68
2024/04/21 11:15:25;;;;;;;4.32;2.13;;;;;;;22.06;33.17;102098.56;5342262;26;20473;-67
2024/04/21 11:17:58;;;;;;;4.15;1.83;;;;;;;23.22;32.33;102086.88;5342427;26;20005;-68
2024/04/21 11:20:24;;;;;;;6.35;1.55;;;;;;;24.05;31.83;102084.16;5314760;26;20342;-67